sensor_id;sensor_type;location;lat;lon;timestamp;temperature;humidity
782;DHT22;374;52.568;13.402;2022-08-21T00:01:12;20.50;99.90
782;DHT22;374;52.568;13.402;2022-08-21T00:03:39;20.50;99.90
782;DHT22;374;52.568;13.402;2022-08-21T00:06:05;20.50;99.90
782;DHT22;374;52.568;13.402;2022-08-21T00:08:30;20.40;99.90
782;DHT22;374;52.568;13.402;2022-08-21T00:10:56;20.40;99.90
782;DHT22;374;52.568;13.402;2022-08-21T00:13:22;20.40;99.90
782;DHT22;374;52.568;13.402;2022-08-21T00:15:48;20.40;99.90
782;DHT22;374;52.568;13.402;2022-08-21T00:18:14;20.40;99.90
782;DHT22;374;52.568;13.402;2022-08-21T00:20:42;20.40;99.90
782;DHT22;374;52.568;13.402;2022-08-21T00:23:08;20.40;99.90
782;DHT22;374;52.568;13.402;2022-08-21T00:25:34;20.40;99.90
782;DHT22;374;52.568;13.402;2022-08-21T00:28:00;20.40;99.90
782;DHT22;374;52.568;13.402;2022-08-21T00:30:27;20.30;99.90
782;DHT22;374;52.568;13.402;2022-08-21T00:32:54;20.30;99.90
782;DHT22;374;52.568;13.402;2022-08-21T00:35:23;20.30;99.90
782;DHT22;374;52.568;13.402;2022-08-21T00:37:49;20.30;99.90
782;DHT22;374;52.568;13.402;2022-08-21T00:40:19;20.30;99.90
782;DHT22;374;52.568;13.402;2022-08-21T00:42:47;20.30;99.90
782;DHT22;374;52.568;13.402;2022-08-21T00:45:13;20.30;99.90
782;DHT22;374;52.568;13.402;2022-08-21T00:47:38;20.30;99.90
782;DHT22;374;52.568;13.402;2022-08-21T00:50:06;20.20;99.90
782;DHT22;374;52.568;13.402;2022-08-21T00:52:34;20.30;99.90
782;DHT22;374;52.568;13.402;2022-08-21T00:55:01;20.30;99.90
782;DHT22;374;52.568;13.402;2022-08-21T00:57:32;20.20;99.90
782;DHT22;374;52.568;13.402;2022-08-21T01:00:00;20.20;99.90
782;DHT22;374;52.568;13.402;2022-08-21T01:02:26;20.20;99.90
782;DHT22;374;52.568;13.402;2022-08-21T01:04:52;20.20;99.90
782;DHT22;374;52.568;13.402;2022-08-21T01:07:18;20.20;99.90
782;DHT22;374;52.568;13.402;2022-08-21T01:09:45;20.20;99.90
782;DHT22;374;52.568;13.402;2022-08-21T01:12:11;20.20;99.90
782;DHT22;374;52.568;13.402;2022-08-21T01:14:38;20.20;99.90
782;DHT22;374;52.568;13.402;2022-08-21T01:17:06;20.20;99.90
782;DHT22;374;52.568;13.402;2022-08-21T01:19:32;20.10;99.90
782;DHT22;374;52.568;13.402;2022-08-21T01:21:57;20.10;99.90
782;DHT22;374;52.568;13.402;2022-08-21T01:24:24;20.10;99.90
782;DHT22;374;52.568;13.402;2022-08-21T01:26:51;20.10;99.90
782;DHT22;374;52.568;13.402;2022-08-21T01:29:41;20.10;99.90
782;DHT22;374;52.568;13.402;2022-08-21T01:32:13;20.10;99.90
782;DHT22;374;52.568;13.402;2022-08-21T01:34:41;20.00;99.90
782;DHT22;374;52.568;13.402;2022-08-21T01:37:07;20.00;99.90
782;DHT22;374;52.568;13.402;2022-08-21T01:39:33;20.00;99.90
782;DHT22;374;52.568;13.402;2022-08-21T01:41:59;20.00;99.90
782;DHT22;374;52.568;13.402;2022-08-21T01:44:25;20.00;99.90
782;DHT22;374;52.568;13.402;2022-08-21T01:46:51;19.90;99.90
782;DHT22;374;52.568;13.402;2022-08-21T01:49:17;19.90;99.90
782;DHT22;374;52.568;13.402;2022-08-21T01:51:43;19.90;99.90
782;DHT22;374;52.568;13.402;2022-08-21T01:54:09;19.90;99.90
782;DHT22;374;52.568;13.402;2022-08-21T01:56:40;19.80;99.90
782;DHT22;374;52.568;13.402;2022-08-21T01:59:07;19.80;99.90
782;DHT22;374;52.568;13.402;2022-08-21T02:01:33;19.80;99.90
782;DHT22;374;52.568;13.402;2022-08-21T02:03:58;19.80;99.90
782;DHT22;374;52.568;13.402;2022-08-21T02:06:25;19.70;99.90
782;DHT22;374;52.568;13.402;2022-08-21T02:08:51;19.70;99.90
782;DHT22;374;52.568;13.402;2022-08-21T02:11:17;19.70;99.90
782;DHT22;374;52.568;13.402;2022-08-21T02:13:43;19.70;99.90
782;DHT22;374;52.568;13.402;2022-08-21T02:16:09;19.70;99.90
782;DHT22;374;52.568;13.402;2022-08-21T02:18:35;19.60;99.90
782;DHT22;374;52.568;13.402;2022-08-21T02:21:01;19.60;99.90
782;DHT22;374;52.568;13.402;2022-08-21T02:23:27;19.60;99.90
782;DHT22;374;52.568;13.402;2022-08-21T02:25:54;19.60;99.90
782;DHT22;374;52.568;13.402;2022-08-21T02:28:19;19.60;99.90
782;DHT22;374;52.568;13.402;2022-08-21T02:30:46;19.50;99.90
782;DHT22;374;52.568;13.402;2022-08-21T02:33:13;19.50;99.90
782;DHT22;374;52.568;13.402;2022-08-21T02:35:40;19.50;99.90
782;DHT22;374;52.568;13.402;2022-08-21T02:38:12;19.40;99.90
782;DHT22;374;52.568;13.402;2022-08-21T02:40:40;19.40;99.90
782;DHT22;374;52.568;13.402;2022-08-21T02:43:06;19.40;99.90
782;DHT22;374;52.568;13.402;2022-08-21T02:45:34;19.40;99.90
782;DHT22;374;52.568;13.402;2022-08-21T02:48:03;19.40;99.90
782;DHT22;374;52.568;13.402;2022-08-21T02:50:32;19.40;99.90
782;DHT22;374;52.568;13.402;2022-08-21T02:52:58;19.30;99.90
782;DHT22;374;52.568;13.402;2022-08-21T02:55:27;19.30;99.90
782;DHT22;374;52.568;13.402;2022-08-21T02:57:55;19.30;99.90
782;DHT22;374;52.568;13.402;2022-08-21T03:00:22;19.30;99.90
782;DHT22;374;52.568;13.402;2022-08-21T03:02:49;19.30;99.90
782;DHT22;374;52.568;13.402;2022-08-21T03:05:15;19.20;99.90
782;DHT22;374;52.568;13.402;2022-08-21T03:07:42;19.20;99.90
782;DHT22;374;52.568;13.402;2022-08-21T03:10:08;19.20;99.90
782;DHT22;374;52.568;13.402;2022-08-21T03:12:35;19.20;99.90
782;DHT22;374;52.568;13.402;2022-08-21T03:15:06;19.20;99.90
782;DHT22;374;52.568;13.402;2022-08-21T03:17:33;19.10;99.90
782;DHT22;374;52.568;13.402;2022-08-21T03:19:58;19.10;99.90
782;DHT22;374;52.568;13.402;2022-08-21T03:22:24;19.10;99.90
782;DHT22;374;52.568;13.402;2022-08-21T03:24:49;19.10;99.90
782;DHT22;374;52.568;13.402;2022-08-21T03:27:19;19.10;99.90
782;DHT22;374;52.568;13.402;2022-08-21T03:29:45;19.00;99.90
782;DHT22;374;52.568;13.402;2022-08-21T03:32:10;19.00;99.90
782;DHT22;374;52.568;13.402;2022-08-21T03:34:37;19.00;99.90
782;DHT22;374;52.568;13.402;2022-08-21T03:37:04;18.90;99.90
782;DHT22;374;52.568;13.402;2022-08-21T03:39:30;19.00;99.90
782;DHT22;374;52.568;13.402;2022-08-21T03:41:56;18.90;99.90
782;DHT22;374;52.568;13.402;2022-08-21T03:44:21;18.90;99.90
782;DHT22;374;52.568;13.402;2022-08-21T03:46:47;18.90;99.90
782;DHT22;374;52.568;13.402;2022-08-21T03:49:15;18.80;99.90
782;DHT22;374;52.568;13.402;2022-08-21T03:51:40;18.80;99.90
782;DHT22;374;52.568;13.402;2022-08-21T03:54:06;18.80;99.90
782;DHT22;374;52.568;13.402;2022-08-21T03:56:31;18.80;99.90
782;DHT22;374;52.568;13.402;2022-08-21T03:58:57;18.80;99.90
782;DHT22;374;52.568;13.402;2022-08-21T04:01:23;18.80;99.90
782;DHT22;374;52.568;13.402;2022-08-21T04:03:48;18.70;99.90
782;DHT22;374;52.568;13.402;2022-08-21T04:06:14;18.70;99.90
782;DHT22;374;52.568;13.402;2022-08-21T04:08:39;18.70;99.90
782;DHT22;374;52.568;13.402;2022-08-21T04:11:08;18.70;99.90
782;DHT22;374;52.568;13.402;2022-08-21T04:13:35;18.70;99.90
782;DHT22;374;52.568;13.402;2022-08-21T04:16:01;18.70;99.90
782;DHT22;374;52.568;13.402;2022-08-21T04:18:27;18.70;99.90
782;DHT22;374;52.568;13.402;2022-08-21T04:20:54;18.60;99.90
782;DHT22;374;52.568;13.402;2022-08-21T04:23:21;18.60;99.90
782;DHT22;374;52.568;13.402;2022-08-21T04:25:47;18.60;99.90
782;DHT22;374;52.568;13.402;2022-08-21T04:28:12;18.60;99.90
782;DHT22;374;52.568;13.402;2022-08-21T04:30:38;18.60;99.90
782;DHT22;374;52.568;13.402;2022-08-21T04:33:03;18.60;99.90
782;DHT22;374;52.568;13.402;2022-08-21T04:35:29;18.60;99.90
782;DHT22;374;52.568;13.402;2022-08-21T04:37:56;18.60;99.90
782;DHT22;374;52.568;13.402;2022-08-21T04:40:23;18.60;99.90
782;DHT22;374;52.568;13.402;2022-08-21T04:42:53;18.60;99.90
782;DHT22;374;52.568;13.402;2022-08-21T04:45:19;18.50;99.90
782;DHT22;374;52.568;13.402;2022-08-21T04:47:47;18.50;99.90
782;DHT22;374;52.568;13.402;2022-08-21T04:50:13;18.50;99.90
782;DHT22;374;52.568;13.402;2022-08-21T04:52:39;18.50;99.90
782;DHT22;374;52.568;13.402;2022-08-21T04:55:05;18.50;99.90
782;DHT22;374;52.568;13.402;2022-08-21T04:57:30;18.50;99.90
782;DHT22;374;52.568;13.402;2022-08-21T04:59:56;18.50;99.90
782;DHT22;374;52.568;13.402;2022-08-21T05:02:21;18.50;99.90
782;DHT22;374;52.568;13.402;2022-08-21T05:04:51;18.50;99.90
782;DHT22;374;52.568;13.402;2022-08-21T05:07:27;18.50;99.90
782;DHT22;374;52.568;13.402;2022-08-21T05:09:54;18.50;99.90
782;DHT22;374;52.568;13.402;2022-08-21T05:12:20;18.50;99.90
782;DHT22;374;52.568;13.402;2022-08-21T05:14:46;18.60;99.90
782;DHT22;374;52.568;13.402;2022-08-21T05:17:12;18.50;99.90
782;DHT22;374;52.568;13.402;2022-08-21T05:19:38;18.50;99.90
782;DHT22;374;52.568;13.402;2022-08-21T05:22:04;18.50;99.90
782;DHT22;374;52.568;13.402;2022-08-21T05:24:29;18.60;99.90
782;DHT22;374;52.568;13.402;2022-08-21T05:26:55;18.60;99.90
782;DHT22;374;52.568;13.402;2022-08-21T05:29:21;18.60;99.90
782;DHT22;374;52.568;13.402;2022-08-21T05:31:47;18.60;99.90
782;DHT22;374;52.568;13.402;2022-08-21T05:34:14;18.50;99.90
782;DHT22;374;52.568;13.402;2022-08-21T05:36:42;18.60;99.90
782;DHT22;374;52.568;13.402;2022-08-21T05:39:08;18.60;99.90
782;DHT22;374;52.568;13.402;2022-08-21T05:41:33;18.60;99.90
782;DHT22;374;52.568;13.402;2022-08-21T05:43:59;18.60;99.90
782;DHT22;374;52.568;13.402;2022-08-21T05:46:24;18.60;99.90
782;DHT22;374;52.568;13.402;2022-08-21T05:48:50;18.60;99.90
782;DHT22;374;52.568;13.402;2022-08-21T05:51:16;18.60;99.90
782;DHT22;374;52.568;13.402;2022-08-21T05:53:43;18.60;99.90
782;DHT22;374;52.568;13.402;2022-08-21T05:56:10;18.60;99.90
782;DHT22;374;52.568;13.402;2022-08-21T05:58:37;18.60;99.90
782;DHT22;374;52.568;13.402;2022-08-21T06:01:03;18.70;99.90
782;DHT22;374;52.568;13.402;2022-08-21T06:03:35;18.70;99.90
782;DHT22;374;52.568;13.402;2022-08-21T06:06:02;18.70;99.90
782;DHT22;374;52.568;13.402;2022-08-21T06:08:28;18.80;99.90
782;DHT22;374;52.568;13.402;2022-08-21T06:10:56;18.80;99.90
782;DHT22;374;52.568;13.402;2022-08-21T06:13:22;18.80;99.90
782;DHT22;374;52.568;13.402;2022-08-21T06:15:48;18.80;99.90
782;DHT22;374;52.568;13.402;2022-08-21T06:18:15;18.80;99.90
782;DHT22;374;52.568;13.402;2022-08-21T06:20:41;18.80;99.90
782;DHT22;374;52.568;13.402;2022-08-21T06:23:07;18.80;99.90
782;DHT22;374;52.568;13.402;2022-08-21T06:25:32;18.90;99.90
782;DHT22;374;52.568;13.402;2022-08-21T06:28:09;18.80;99.90
782;DHT22;374;52.568;13.402;2022-08-21T06:30:36;18.90;99.90
782;DHT22;374;52.568;13.402;2022-08-21T06:33:04;18.90;99.90
782;DHT22;374;52.568;13.402;2022-08-21T06:35:29;18.90;99.90
782;DHT22;374;52.568;13.402;2022-08-21T06:37:56;19.00;99.90
782;DHT22;374;52.568;13.402;2022-08-21T06:40:22;19.00;99.90
782;DHT22;374;52.568;13.402;2022-08-21T06:42:47;19.00;99.90
782;DHT22;374;52.568;13.402;2022-08-21T06:45:14;19.10;99.90
782;DHT22;374;52.568;13.402;2022-08-21T06:47:39;19.10;99.90
782;DHT22;374;52.568;13.402;2022-08-21T06:50:05;19.10;99.90
782;DHT22;374;52.568;13.402;2022-08-21T06:52:33;19.10;99.90
782;DHT22;374;52.568;13.402;2022-08-21T06:54:59;19.20;99.90
782;DHT22;374;52.568;13.402;2022-08-21T06:57:24;19.20;99.90
782;DHT22;374;52.568;13.402;2022-08-21T06:59:50;19.20;99.90
782;DHT22;374;52.568;13.402;2022-08-21T07:02:16;19.30;99.90
782;DHT22;374;52.568;13.402;2022-08-21T07:04:42;19.30;99.90
782;DHT22;374;52.568;13.402;2022-08-21T07:07:08;19.40;99.90
782;DHT22;374;52.568;13.402;2022-08-21T07:09:33;19.40;99.90
782;DHT22;374;52.568;13.402;2022-08-21T07:11:59;19.40;99.90
782;DHT22;374;52.568;13.402;2022-08-21T07:14:24;19.50;99.90
782;DHT22;374;52.568;13.402;2022-08-21T07:16:50;19.60;99.90
782;DHT22;374;52.568;13.402;2022-08-21T07:19:16;19.70;99.90
782;DHT22;374;52.568;13.402;2022-08-21T07:21:42;19.70;99.90
782;DHT22;374;52.568;13.402;2022-08-21T07:24:08;19.80;99.90
782;DHT22;374;52.568;13.402;2022-08-21T07:26:34;19.90;99.90
782;DHT22;374;52.568;13.402;2022-08-21T07:28:59;20.00;99.90
782;DHT22;374;52.568;13.402;2022-08-21T07:31:26;20.00;99.90
782;DHT22;374;52.568;13.402;2022-08-21T07:33:52;20.10;99.90
782;DHT22;374;52.568;13.402;2022-08-21T07:36:17;20.10;99.90
782;DHT22;374;52.568;13.402;2022-08-21T07:38:43;20.20;99.90
782;DHT22;374;52.568;13.402;2022-08-21T07:41:17;20.30;99.90
782;DHT22;374;52.568;13.402;2022-08-21T07:43:44;20.40;99.90
782;DHT22;374;52.568;13.402;2022-08-21T07:46:10;20.40;99.90
782;DHT22;374;52.568;13.402;2022-08-21T07:48:36;20.50;99.90
782;DHT22;374;52.568;13.402;2022-08-21T07:51:09;20.50;99.90
782;DHT22;374;52.568;13.402;2022-08-21T07:53:37;20.60;99.90
782;DHT22;374;52.568;13.402;2022-08-21T07:56:04;20.60;99.90
782;DHT22;374;52.568;13.402;2022-08-21T08:05:23;20.70;99.90
782;DHT22;374;52.568;13.402;2022-08-21T08:07:49;20.80;99.90
782;DHT22;374;52.568;13.402;2022-08-21T08:10:16;20.80;99.90
782;DHT22;374;52.568;13.402;2022-08-21T08:12:42;20.90;99.90
782;DHT22;374;52.568;13.402;2022-08-21T08:15:11;21.00;99.90
782;DHT22;374;52.568;13.402;2022-08-21T08:17:37;21.10;99.90
782;DHT22;374;52.568;13.402;2022-08-21T08:20:04;21.20;99.90
782;DHT22;374;52.568;13.402;2022-08-21T08:22:30;21.30;99.90
782;DHT22;374;52.568;13.402;2022-08-21T08:24:56;21.40;99.90
782;DHT22;374;52.568;13.402;2022-08-21T08:27:22;21.40;99.90
782;DHT22;374;52.568;13.402;2022-08-21T08:29:49;21.50;99.90
782;DHT22;374;52.568;13.402;2022-08-21T08:32:15;21.60;99.90
782;DHT22;374;52.568;13.402;2022-08-21T08:34:40;21.70;99.90
782;DHT22;374;52.568;13.402;2022-08-21T08:37:08;21.80;99.90
782;DHT22;374;52.568;13.402;2022-08-21T08:39:34;22.00;99.90
782;DHT22;374;52.568;13.402;2022-08-21T08:42:11;22.20;99.90
782;DHT22;374;52.568;13.402;2022-08-21T08:44:42;22.30;99.90
782;DHT22;374;52.568;13.402;2022-08-21T08:47:09;22.40;99.90
782;DHT22;374;52.568;13.402;2022-08-21T08:49:55;22.50;99.90
782;DHT22;374;52.568;13.402;2022-08-21T08:52:31;22.50;99.70
782;DHT22;374;52.568;13.402;2022-08-21T08:55:05;22.60;99.30
782;DHT22;374;52.568;13.402;2022-08-21T08:57:32;22.60;99.10
782;DHT22;374;52.568;13.402;2022-08-21T09:00:00;22.60;99.10
782;DHT22;374;52.568;13.402;2022-08-21T09:02:25;22.60;99.10
782;DHT22;374;52.568;13.402;2022-08-21T09:04:54;22.60;98.70
782;DHT22;374;52.568;13.402;2022-08-21T09:07:45;22.60;99.50
782;DHT22;374;52.568;13.402;2022-08-21T09:10:19;22.50;98.40
782;DHT22;374;52.568;13.402;2022-08-21T09:16:06;22.50;98.10
782;DHT22;374;52.568;13.402;2022-08-21T09:18:47;22.40;97.90
782;DHT22;374;52.568;13.402;2022-08-21T09:21:28;22.40;98.50
782;DHT22;374;52.568;13.402;2022-08-21T09:24:26;22.40;98.30
782;DHT22;374;52.568;13.402;2022-08-21T09:29:34;22.40;97.50
782;DHT22;374;52.568;13.402;2022-08-21T09:32:00;22.40;98.60
782;DHT22;374;52.568;13.402;2022-08-21T09:34:29;22.40;97.60
782;DHT22;374;52.568;13.402;2022-08-21T09:36:55;22.40;98.50
782;DHT22;374;52.568;13.402;2022-08-21T09:39:31;22.40;98.40
782;DHT22;374;52.568;13.402;2022-08-21T09:42:06;22.40;97.80
782;DHT22;374;52.568;13.402;2022-08-21T09:44:37;22.40;98.00
782;DHT22;374;52.568;13.402;2022-08-21T09:47:09;22.40;97.80
782;DHT22;374;52.568;13.402;2022-08-21T09:49:39;22.40;97.80
782;DHT22;374;52.568;13.402;2022-08-21T09:52:16;22.40;97.80
782;DHT22;374;52.568;13.402;2022-08-21T09:54:45;22.50;98.50
782;DHT22;374;52.568;13.402;2022-08-21T09:59:55;22.60;97.80
782;DHT22;374;52.568;13.402;2022-08-21T10:02:39;22.60;97.10
782;DHT22;374;52.568;13.402;2022-08-21T10:05:25;22.60;97.30
782;DHT22;374;52.568;13.402;2022-08-21T10:07:51;22.60;96.50
782;DHT22;374;52.568;13.402;2022-08-21T10:10:25;22.70;96.50
782;DHT22;374;52.568;13.402;2022-08-21T10:13:07;22.70;95.80
782;DHT22;374;52.568;13.402;2022-08-21T10:18:29;22.70;94.80
782;DHT22;374;52.568;13.402;2022-08-21T10:21:18;22.80;95.40
782;DHT22;374;52.568;13.402;2022-08-21T10:26:44;22.70;94.80
782;DHT22;374;52.568;13.402;2022-08-21T10:29:22;22.70;94.70
782;DHT22;374;52.568;13.402;2022-08-21T10:34:58;22.70;94.60
782;DHT22;374;52.568;13.402;2022-08-21T10:43:29;22.80;94.60
782;DHT22;374;52.568;13.402;2022-08-21T10:48:54;22.80;93.40
782;DHT22;374;52.568;13.402;2022-08-21T10:51:32;22.80;92.80
782;DHT22;374;52.568;13.402;2022-08-21T10:54:09;22.80;93.10
782;DHT22;374;52.568;13.402;2022-08-21T10:56:41;22.80;92.60
782;DHT22;374;52.568;13.402;2022-08-21T10:59:32;22.80;92.00
782;DHT22;374;52.568;13.402;2022-08-21T11:02:26;22.80;92.10
782;DHT22;374;52.568;13.402;2022-08-21T11:04:59;22.80;91.20
782;DHT22;374;52.568;13.402;2022-08-21T11:07:37;22.80;91.00
782;DHT22;374;52.568;13.402;2022-08-21T11:10:31;22.80;90.60
782;DHT22;374;52.568;13.402;2022-08-21T11:13:07;22.90;91.60
782;DHT22;374;52.568;13.402;2022-08-21T11:15:38;22.90;91.50
782;DHT22;374;52.568;13.402;2022-08-21T11:18:31;22.90;90.70
782;DHT22;374;52.568;13.402;2022-08-21T11:21:27;23.00;90.60
782;DHT22;374;52.568;13.402;2022-08-21T11:24:03;23.00;91.10
782;DHT22;374;52.568;13.402;2022-08-21T11:26:37;23.00;88.60
782;DHT22;374;52.568;13.402;2022-08-21T11:29:17;23.00;90.00
782;DHT22;374;52.568;13.402;2022-08-21T11:32:20;23.00;89.80
782;DHT22;374;52.568;13.402;2022-08-21T11:38:17;23.00;84.80
782;DHT22;374;52.568;13.402;2022-08-21T11:41:05;23.00;85.30
782;DHT22;374;52.568;13.402;2022-08-21T11:46:15;23.10;85.40
782;DHT22;374;52.568;13.402;2022-08-21T11:51:52;23.10;84.60
782;DHT22;374;52.568;13.402;2022-08-21T11:54:22;23.10;83.90
782;DHT22;374;52.568;13.402;2022-08-21T11:56:55;23.10;81.70
782;DHT22;374;52.568;13.402;2022-08-21T11:59:45;23.10;79.10
782;DHT22;374;52.568;13.402;2022-08-21T12:02:17;23.20;81.00
782;DHT22;374;52.568;13.402;2022-08-21T12:04:51;23.20;81.80
782;DHT22;374;52.568;13.402;2022-08-21T12:09:56;23.20;81.20
782;DHT22;374;52.568;13.402;2022-08-21T12:12:28;23.10;80.10
782;DHT22;374;52.568;13.402;2022-08-21T12:18:06;23.10;80.30
782;DHT22;374;52.568;13.402;2022-08-21T12:21:02;23.10;80.60
782;DHT22;374;52.568;13.402;2022-08-21T12:23:35;23.10;78.70
782;DHT22;374;52.568;13.402;2022-08-21T12:26:28;23.20;79.80
782;DHT22;374;52.568;13.402;2022-08-21T12:29:07;23.20;80.30
782;DHT22;374;52.568;13.402;2022-08-21T12:31:35;23.10;78.40
782;DHT22;374;52.568;13.402;2022-08-21T12:34:14;23.10;79.10
782;DHT22;374;52.568;13.402;2022-08-21T12:36:54;23.10;78.30
782;DHT22;374;52.568;13.402;2022-08-21T12:39:27;23.10;78.20
782;DHT22;374;52.568;13.402;2022-08-21T12:42:18;23.20;79.30
782;DHT22;374;52.568;13.402;2022-08-21T12:44:52;23.20;78.50
782;DHT22;374;52.568;13.402;2022-08-21T12:47:43;23.10;77.50
782;DHT22;374;52.568;13.402;2022-08-21T12:50:21;23.20;76.70
782;DHT22;374;52.568;13.402;2022-08-21T12:56:23;23.10;78.30
782;DHT22;374;52.568;13.402;2022-08-21T12:59:11;23.10;78.00
782;DHT22;374;52.568;13.402;2022-08-21T13:01:48;23.10;78.60
782;DHT22;374;52.568;13.402;2022-08-21T13:04:35;23.10;79.10
782;DHT22;374;52.568;13.402;2022-08-21T13:07:12;23.10;79.60
782;DHT22;374;52.568;13.402;2022-08-21T13:12:40;23.10;79.70
782;DHT22;374;52.568;13.402;2022-08-21T13:15:09;23.10;79.50
782;DHT22;374;52.568;13.402;2022-08-21T13:17:50;23.10;79.50
782;DHT22;374;52.568;13.402;2022-08-21T13:41:31;22.90;81.30
782;DHT22;374;52.568;13.402;2022-08-21T13:44:02;22.90;81.50
782;DHT22;374;52.568;13.402;2022-08-21T13:46:52;23.00;82.10
782;DHT22;374;52.568;13.402;2022-08-21T13:56:54;23.10;82.80
782;DHT22;374;52.568;13.402;2022-08-21T14:13:51;23.40;83.20
782;DHT22;374;52.568;13.402;2022-08-21T14:16:46;23.30;81.90
782;DHT22;374;52.568;13.402;2022-08-21T14:19:27;23.40;83.60
782;DHT22;374;52.568;13.402;2022-08-21T14:21:53;23.40;83.10
782;DHT22;374;52.568;13.402;2022-08-21T14:27:03;23.40;85.10
782;DHT22;374;52.568;13.402;2022-08-21T14:29:35;23.40;84.40
782;DHT22;374;52.568;13.402;2022-08-21T14:32:18;23.30;84.20
782;DHT22;374;52.568;13.402;2022-08-21T14:34:45;23.30;84.30
782;DHT22;374;52.568;13.402;2022-08-21T14:37:10;23.30;82.60
782;DHT22;374;52.568;13.402;2022-08-21T14:39:36;23.30;82.60
782;DHT22;374;52.568;13.402;2022-08-21T14:42:02;23.20;82.10
782;DHT22;374;52.568;13.402;2022-08-21T14:44:27;23.20;83.20
782;DHT22;374;52.568;13.402;2022-08-21T14:46:53;23.20;83.90
782;DHT22;374;52.568;13.402;2022-08-21T14:49:20;23.20;83.60
782;DHT22;374;52.568;13.402;2022-08-21T14:51:45;23.20;83.40
782;DHT22;374;52.568;13.402;2022-08-21T14:54:10;23.20;83.20
782;DHT22;374;52.568;13.402;2022-08-21T14:56:36;23.20;84.60
782;DHT22;374;52.568;13.402;2022-08-21T14:59:06;23.10;83.70
782;DHT22;374;52.568;13.402;2022-08-21T15:01:35;23.20;85.40
782;DHT22;374;52.568;13.402;2022-08-21T15:04:01;23.10;83.70
782;DHT22;374;52.568;13.402;2022-08-21T15:06:27;23.10;83.90
782;DHT22;374;52.568;13.402;2022-08-21T15:08:52;23.10;84.90
782;DHT22;374;52.568;13.402;2022-08-21T15:11:19;23.10;84.20
782;DHT22;374;52.568;13.402;2022-08-21T15:14:11;23.10;84.50
782;DHT22;374;52.568;13.402;2022-08-21T15:16:40;23.10;85.00
782;DHT22;374;52.568;13.402;2022-08-21T15:19:07;23.10;85.10
782;DHT22;374;52.568;13.402;2022-08-21T15:21:32;23.10;85.90
782;DHT22;374;52.568;13.402;2022-08-21T15:23:57;23.10;84.60
782;DHT22;374;52.568;13.402;2022-08-21T15:26:23;23.10;84.60
782;DHT22;374;52.568;13.402;2022-08-21T15:28:49;23.10;85.30
782;DHT22;374;52.568;13.402;2022-08-21T15:31:15;23.10;86.60
782;DHT22;374;52.568;13.402;2022-08-21T15:33:40;23.00;85.70
782;DHT22;374;52.568;13.402;2022-08-21T15:36:06;23.00;86.60
782;DHT22;374;52.568;13.402;2022-08-21T15:38:34;23.00;86.70
782;DHT22;374;52.568;13.402;2022-08-21T15:41:02;23.00;86.10
782;DHT22;374;52.568;13.402;2022-08-21T15:43:30;23.00;85.90
782;DHT22;374;52.568;13.402;2022-08-21T15:46:00;23.00;84.90
782;DHT22;374;52.568;13.402;2022-08-21T15:48:26;23.00;84.70
782;DHT22;374;52.568;13.402;2022-08-21T15:50:52;23.00;85.30
782;DHT22;374;52.568;13.402;2022-08-21T15:53:17;23.00;84.50
782;DHT22;374;52.568;13.402;2022-08-21T15:55:43;23.00;85.70
782;DHT22;374;52.568;13.402;2022-08-21T15:58:14;23.00;85.60
782;DHT22;374;52.568;13.402;2022-08-21T16:00:40;23.00;86.20
782;DHT22;374;52.568;13.402;2022-08-21T16:03:09;23.00;84.40
782;DHT22;374;52.568;13.402;2022-08-21T16:05:37;23.00;85.50
782;DHT22;374;52.568;13.402;2022-08-21T16:08:03;23.00;88.00
782;DHT22;374;52.568;13.402;2022-08-21T16:10:29;23.00;88.70
782;DHT22;374;52.568;13.402;2022-08-21T16:12:58;23.00;88.10
782;DHT22;374;52.568;13.402;2022-08-21T16:15:26;22.90;88.40
782;DHT22;374;52.568;13.402;2022-08-21T16:17:53;22.90;87.50
782;DHT22;374;52.568;13.402;2022-08-21T16:20:22;22.90;87.90
782;DHT22;374;52.568;13.402;2022-08-21T16:22:49;22.90;86.30
782;DHT22;374;52.568;13.402;2022-08-21T16:25:15;22.90;86.40
782;DHT22;374;52.568;13.402;2022-08-21T16:27:42;22.80;87.30
782;DHT22;374;52.568;13.402;2022-08-21T16:30:09;22.80;86.40
782;DHT22;374;52.568;13.402;2022-08-21T16:32:35;22.80;87.00
782;DHT22;374;52.568;13.402;2022-08-21T16:35:01;22.80;87.10
782;DHT22;374;52.568;13.402;2022-08-21T16:37:28;22.80;88.00
782;DHT22;374;52.568;13.402;2022-08-21T16:39:53;22.80;87.60
782;DHT22;374;52.568;13.402;2022-08-21T16:42:22;22.80;88.30
782;DHT22;374;52.568;13.402;2022-08-21T16:44:48;22.80;85.80
782;DHT22;374;52.568;13.402;2022-08-21T16:47:14;22.80;86.60
782;DHT22;374;52.568;13.402;2022-08-21T16:49:40;22.80;85.60
782;DHT22;374;52.568;13.402;2022-08-21T16:52:05;22.70;87.80
782;DHT22;374;52.568;13.402;2022-08-21T16:54:31;22.70;87.30
782;DHT22;374;52.568;13.402;2022-08-21T16:56:58;22.70;88.60
782;DHT22;374;52.568;13.402;2022-08-21T16:59:24;22.70;88.40
782;DHT22;374;52.568;13.402;2022-08-21T17:01:51;22.70;88.60
782;DHT22;374;52.568;13.402;2022-08-21T17:04:17;22.70;88.60
782;DHT22;374;52.568;13.402;2022-08-21T17:06:44;22.70;90.20
782;DHT22;374;52.568;13.402;2022-08-21T17:09:10;22.70;90.40
782;DHT22;374;52.568;13.402;2022-08-21T17:11:42;22.70;91.00
782;DHT22;374;52.568;13.402;2022-08-21T17:14:20;22.70;91.10
782;DHT22;374;52.568;13.402;2022-08-21T17:16:49;22.60;90.50
782;DHT22;374;52.568;13.402;2022-08-21T17:19:15;22.60;90.30
782;DHT22;374;52.568;13.402;2022-08-21T17:21:41;22.60;90.90
782;DHT22;374;52.568;13.402;2022-08-21T17:24:07;22.60;90.70
782;DHT22;374;52.568;13.402;2022-08-21T17:26:33;22.60;90.50
782;DHT22;374;52.568;13.402;2022-08-21T17:28:58;22.60;90.80
782;DHT22;374;52.568;13.402;2022-08-21T17:31:24;22.60;91.80
782;DHT22;374;52.568;13.402;2022-08-21T17:33:51;22.50;91.20
782;DHT22;374;52.568;13.402;2022-08-21T17:36:21;22.50;91.10
782;DHT22;374;52.568;13.402;2022-08-21T17:38:48;22.50;92.20
782;DHT22;374;52.568;13.402;2022-08-21T17:41:14;22.50;92.30
782;DHT22;374;52.568;13.402;2022-08-21T17:43:40;22.50;91.10
782;DHT22;374;52.568;13.402;2022-08-21T17:46:06;22.40;91.90
782;DHT22;374;52.568;13.402;2022-08-21T17:48:32;22.40;92.40
782;DHT22;374;52.568;13.402;2022-08-21T17:50:58;22.40;92.70
782;DHT22;374;52.568;13.402;2022-08-21T17:53:30;22.40;92.80
782;DHT22;374;52.568;13.402;2022-08-21T18:06:17;22.30;92.70
782;DHT22;374;52.568;13.402;2022-08-21T18:08:43;22.20;93.40
782;DHT22;374;52.568;13.402;2022-08-21T18:21:15;22.10;94.70
782;DHT22;374;52.568;13.402;2022-08-21T18:23:44;22.10;94.80
782;DHT22;374;52.568;13.402;2022-08-21T18:26:10;22.00;94.90
782;DHT22;374;52.568;13.402;2022-08-21T18:28:37;22.00;95.40
782;DHT22;374;52.568;13.402;2022-08-21T18:31:03;21.90;95.20